createdAt,value
2023-01-09T00:04:30.418Z,11.93
2023-01-09T00:09:35.105Z,11.89
2023-01-09T00:14:38.520Z,11.83
2023-01-09T00:19:42.026Z,11.83
2023-01-09T00:24:45.524Z,11.81
2023-01-09T00:29:49.075Z,11.85
2023-01-09T00:34:52.298Z,11.84
2023-01-09T00:39:56.666Z,11.84
2023-01-09T00:45:04.368Z,11.86
2023-01-09T00:50:15.338Z,11.81
2023-01-09T00:55:19.163Z,11.86
2023-01-09T01:00:22.780Z,11.89
2023-01-09T01:05:26.173Z,11.93
2023-01-09T01:10:29.599Z,11.94
2023-01-09T01:15:33.195Z,11.87
2023-01-09T01:20:36.783Z,11.87
2023-01-09T01:25:41.625Z,11.83
2023-01-09T01:30:45.088Z,11.82
2023-01-09T01:35:48.426Z,11.82
2023-01-09T01:40:54.654Z,11.81
2023-01-09T01:45:57.823Z,11.84
2023-01-09T01:51:03.950Z,11.88
2023-01-09T01:56:20.242Z,11.87
2023-01-09T02:01:25.551Z,11.90
2023-01-09T02:06:30.857Z,11.92
2023-01-09T02:11:35.018Z,11.95
2023-01-09T02:16:59.573Z,12.01
2023-01-09T02:22:56.855Z,12.03
2023-01-09T02:28:27.456Z,12.07
2023-01-09T02:33:46.091Z,12.04
2023-01-09T02:39:13.329Z,12.06
2023-01-09T02:44:26.587Z,12.08
2023-01-09T02:49:30.050Z,12.07
2023-01-09T02:54:46.117Z,12.08
2023-01-09T03:00:17.096Z,12.11
2023-01-09T03:05:35.163Z,12.14
2023-01-09T03:10:43.227Z,12.16
2023-01-09T03:15:48.966Z,12.17
2023-01-09T03:20:56.792Z,12.22
2023-01-09T03:26:00.205Z,12.24
2023-01-09T03:31:03.375Z,12.18
2023-01-09T03:36:07.484Z,12.22
2023-01-09T03:41:10.922Z,12.21
2023-01-09T03:46:16.142Z,12.19
2023-01-09T03:51:19.815Z,12.11
2023-01-09T03:56:23.794Z,11.87
2023-01-09T04:01:27.249Z,11.65
2023-01-09T04:06:30.713Z,11.15
2023-01-09T04:11:34.083Z,10.78
2023-01-09T04:16:37.261Z,10.75
2023-01-09T04:21:40.369Z,11.06
2023-01-09T04:26:43.815Z,11.33
2023-01-09T04:31:47.391Z,11.59
2023-01-09T04:36:51.030Z,11.70
2023-01-09T04:41:54.874Z,11.76
2023-01-09T04:46:58.349Z,11.74
2023-01-09T04:52:02.172Z,11.75
2023-01-09T04:57:05.929Z,11.77
2023-01-09T05:02:10.376Z,11.78
2023-01-09T05:07:13.885Z,11.82
2023-01-09T05:12:17.083Z,11.84
2023-01-09T05:17:20.080Z,11.88
2023-01-09T05:22:23.560Z,11.90
2023-01-09T05:27:26.851Z,11.94
2023-01-09T05:32:29.976Z,11.96
2023-01-09T05:37:33.655Z,11.97
2023-01-09T05:42:37.373Z,11.94
2023-01-09T05:47:40.923Z,12.00
2023-01-09T05:52:44.433Z,12.04
2023-01-09T05:57:47.957Z,11.99
2023-01-09T06:02:52.621Z,11.97
2023-01-09T06:07:56.044Z,11.95
2023-01-09T06:12:59.652Z,11.88
2023-01-09T06:18:03.155Z,11.87
2023-01-09T06:23:06.759Z,11.86
2023-01-09T06:28:11.273Z,11.91
2023-01-09T06:33:14.580Z,11.94
2023-01-09T06:38:17.791Z,11.99
2023-01-09T06:43:21.359Z,12.01
2023-01-09T06:48:25.213Z,11.98
2023-01-09T06:53:29.641Z,11.97
2023-01-09T06:58:34.425Z,12.03
2023-01-09T07:03:37.867Z,12.08
2023-01-09T07:08:41.249Z,12.13
2023-01-09T07:13:45.895Z,12.25
2023-01-09T07:18:49.377Z,12.40
2023-01-09T07:23:55.673Z,12.55
2023-01-09T07:28:59.355Z,12.64
2023-01-09T07:34:02.759Z,12.83
2023-01-09T07:39:05.898Z,12.90
2023-01-09T07:44:11.068Z,12.95
2023-01-09T07:49:16.319Z,13.00
2023-01-09T07:54:27.359Z,13.09
2023-01-09T07:59:31.620Z,13.21
2023-01-09T08:04:34.930Z,13.20
2023-01-09T08:09:39.083Z,13.25
2023-01-09T08:14:42.510Z,13.33
2023-01-09T08:19:45.948Z,13.37
2023-01-09T08:24:49.095Z,13.44
2023-01-09T08:29:52.940Z,13.53
2023-01-09T08:34:56.724Z,13.60
2023-01-09T08:40:00.998Z,13.68
2023-01-09T08:45:06.489Z,13.79
2023-01-09T08:50:10.299Z,13.87
2023-01-09T08:55:13.880Z,13.92
2023-01-09T09:00:19.231Z,14.12
2023-01-09T09:05:25.500Z,14.18
2023-01-09T09:10:30.654Z,14.23
2023-01-09T09:15:34.211Z,14.21
2023-01-09T09:20:40.434Z,14.32
2023-01-09T09:25:43.914Z,14.43
2023-01-09T09:30:47.478Z,14.55
2023-01-09T09:35:51.144Z,14.60
2023-01-09T09:41:23.494Z,14.69
2023-01-09T09:46:54.009Z,14.82
2023-01-09T09:52:21.042Z,14.91
2023-01-09T09:57:33.112Z,14.95
2023-01-09T10:02:45.280Z,14.99
2023-01-09T10:07:51.201Z,15.03
2023-01-09T10:12:58.408Z,14.98
2023-01-09T10:18:17.114Z,15.01
2023-01-09T10:23:39.402Z,15.00
2023-01-09T10:29:10.630Z,15.04
2023-01-09T10:34:32.696Z,15.05
2023-01-09T10:39:49.416Z,15.11
2023-01-09T10:45:26.775Z,14.96
2023-01-09T10:50:37.976Z,14.87
2023-01-09T10:55:48.876Z,14.74
2023-01-09T11:00:52.393Z,14.65
2023-01-09T11:05:56.488Z,14.59
2023-01-09T11:11:01.853Z,14.48
2023-01-09T11:16:11.076Z,14.40
2023-01-09T11:21:28.052Z,14.29
2023-01-09T11:26:31.716Z,14.24
2023-01-09T11:31:35.742Z,14.27
2023-01-09T11:36:41.163Z,14.44
2023-01-09T11:41:48.272Z,14.60
2023-01-09T11:46:55.415Z,14.68
2023-01-09T11:52:16.137Z,14.71
2023-01-09T11:57:22.780Z,14.76
2023-01-09T12:02:34.933Z,14.84
2023-01-09T12:07:47.016Z,14.90
2023-01-09T12:13:21.285Z,14.96
2023-01-09T12:18:35.044Z,15.02
2023-01-09T12:23:41.334Z,15.19
2023-01-09T12:29:03.583Z,15.36
2023-01-09T12:34:25.117Z,15.35
2023-01-09T12:39:57.023Z,15.32
2023-01-09T12:45:20.175Z,15.33
2023-01-09T12:50:58.407Z,15.40
2023-01-09T12:56:12.252Z,15.35
2023-01-09T13:01:43.664Z,15.32
2023-01-09T13:07:18.815Z,15.33
2023-01-09T13:12:25.097Z,15.28
2023-01-09T13:17:37.194Z,15.20
2023-01-09T13:22:42.162Z,15.14
2023-01-09T13:27:56.712Z,15.14
2023-01-09T13:33:19.122Z,15.14
2023-01-09T13:38:25.123Z,15.17
2023-01-09T13:43:28.459Z,15.23
2023-01-09T13:48:41.698Z,15.24
2023-01-09T13:53:46.699Z,15.14
2023-01-09T13:58:55.995Z,15.09
2023-01-09T14:04:12.808Z,15.06
2023-01-09T14:09:22.650Z,15.00
2023-01-09T14:14:32.698Z,14.86
2023-01-09T14:19:40.468Z,14.69
2023-01-09T14:24:47.170Z,14.57
2023-01-09T14:29:50.941Z,14.43
2023-01-09T14:35:03.417Z,14.28
2023-01-09T14:40:08.354Z,14.18
2023-01-09T14:45:19.109Z,14.05
2023-01-09T14:50:48.957Z,13.93
2023-01-09T14:55:57.064Z,13.81
2023-01-09T15:01:07.358Z,13.69
2023-01-09T15:06:15.960Z,13.59
2023-01-09T15:11:20.042Z,13.54
2023-01-09T15:16:25.624Z,13.53
2023-01-09T15:21:31.747Z,13.44
2023-01-09T15:26:35.572Z,13.39
2023-01-09T15:31:42.503Z,13.37
2023-01-09T15:36:46.919Z,13.37
2023-01-09T15:41:51.298Z,13.30
2023-01-09T15:46:59.773Z,13.23
2023-01-09T15:52:04.139Z,13.21
2023-01-09T15:57:26.378Z,13.24
2023-01-09T16:02:29.909Z,13.27
2023-01-09T16:07:34.230Z,13.29
2023-01-09T16:12:40.710Z,13.26
2023-01-09T16:18:15.859Z,13.20
2023-01-09T16:23:29.214Z,13.12
2023-01-09T16:28:35.325Z,13.06
2023-01-09T16:33:46.542Z,13.01
2023-01-09T16:38:49.961Z,13.04
2023-01-09T16:43:53.117Z,13.10
2023-01-09T16:48:59.781Z,13.18
2023-01-09T16:54:03.138Z,13.26
2023-01-09T16:59:10.221Z,13.29
2023-01-09T17:04:16.352Z,13.31
2023-01-09T17:09:26.558Z,13.28
2023-01-09T17:14:30.959Z,13.23
2023-01-09T17:19:34.402Z,13.22
2023-01-09T17:24:38.021Z,13.21
2023-01-09T17:29:41.884Z,13.17
2023-01-09T17:34:45.894Z,13.14
2023-01-09T17:39:49.346Z,13.11
2023-01-09T17:44:53.257Z,13.12
2023-01-09T17:49:56.565Z,13.10
2023-01-09T17:55:00.175Z,13.10
2023-01-09T18:00:05.267Z,13.08
2023-01-09T18:05:09.799Z,13.04
2023-01-09T18:10:18.490Z,12.99
2023-01-09T18:15:22.706Z,12.95
2023-01-09T18:20:26.339Z,12.80
2023-01-09T18:25:29.957Z,12.64
2023-01-09T18:30:33.795Z,12.47
2023-01-09T18:35:37.370Z,12.37
2023-01-09T18:40:40.772Z,12.30
2023-01-09T18:45:45.577Z,12.24
2023-01-09T18:50:49.291Z,12.20
2023-01-09T18:55:52.876Z,12.19
2023-01-09T19:00:56.744Z,12.18
2023-01-09T19:06:04.383Z,12.11
2023-01-09T19:11:07.988Z,12.00
2023-01-09T19:16:11.847Z,11.92
2023-01-09T19:21:16.938Z,11.87
2023-01-09T19:26:23.935Z,11.82
2023-01-09T19:31:28.971Z,11.78
2023-01-09T19:36:33.040Z,11.74
2023-01-09T19:41:37.292Z,11.77
2023-01-09T19:46:41.049Z,11.82
2023-01-09T19:51:44.630Z,11.79
2023-01-09T19:56:48.314Z,11.74
2023-01-09T20:01:52.159Z,11.68
2023-01-09T20:06:55.832Z,11.63
2023-01-09T20:12:00.040Z,11.58
2023-01-09T20:17:03.318Z,11.51
2023-01-09T20:22:06.855Z,11.46
2023-01-09T20:27:12.971Z,11.41
2023-01-09T20:32:17.411Z,11.35
2023-01-09T20:37:22.298Z,11.32
2023-01-09T20:42:25.901Z,11.34
2023-01-09T20:47:29.393Z,11.37
2023-01-09T20:52:32.556Z,11.38
2023-01-09T20:57:35.740Z,11.44
2023-01-09T21:02:38.775Z,11.43
2023-01-09T21:07:42.102Z,11.38
2023-01-09T21:12:45.406Z,11.33
2023-01-09T21:17:49.825Z,11.33
2023-01-09T21:22:53.537Z,11.32
2023-01-09T21:27:57.024Z,11.27
2023-01-09T21:33:00.644Z,11.25
2023-01-09T21:38:15.634Z,11.22
2023-01-09T21:43:28.248Z,11.19
2023-01-09T21:48:31.941Z,11.19
2023-01-09T21:53:35.453Z,11.22
2023-01-09T21:58:38.793Z,11.29
2023-01-09T22:03:41.982Z,11.39
2023-01-09T22:08:45.496Z,11.48
2023-01-09T22:13:48.870Z,11.48
2023-01-09T22:18:52.308Z,11.52
2023-01-09T22:23:56.223Z,11.61
2023-01-09T22:28:59.701Z,11.70
2023-01-09T22:34:03.062Z,11.72
2023-01-09T22:39:07.046Z,11.71
2023-01-09T22:44:12.131Z,11.69
2023-01-09T22:49:15.445Z,11.60
2023-01-09T22:54:18.658Z,11.54
2023-01-09T22:59:21.672Z,11.48
2023-01-09T23:04:25.023Z,11.44
2023-01-09T23:09:28.607Z,11.46
2023-01-09T23:14:37.648Z,11.54
2023-01-09T23:19:41.286Z,11.61
2023-01-09T23:24:44.800Z,11.66
2023-01-09T23:29:47.950Z,11.72
2023-01-09T23:34:51.627Z,11.76
2023-01-09T23:39:54.708Z,11.76
2023-01-09T23:44:58.081Z,11.72
2023-01-09T23:50:01.757Z,11.60
2023-01-09T23:55:07.016Z,11.57
